createdAt,value
2023-02-19T00:02:27.185Z,99312.75
2023-02-19T00:04:54.828Z,99304.81
2023-02-19T00:07:22.531Z,99306.66
2023-02-19T00:09:50.236Z,99309.78
2023-02-19T00:12:17.834Z,99312.31
2023-02-19T00:14:50.958Z,99316.94
2023-02-19T00:17:18.712Z,99312.59
2023-02-19T00:19:46.220Z,99306.81
2023-02-19T00:22:13.385Z,99314.03
2023-02-19T00:24:40.621Z,99309.47
2023-02-19T00:27:08.150Z,99312.34
2023-02-19T00:29:35.357Z,99307.56
2023-02-19T00:32:02.637Z,99304.13
2023-02-19T00:34:30.367Z,99308.38
2023-02-19T00:37:03.046Z,99293.50
2023-02-19T00:39:30.703Z,99294.59
2023-02-19T00:41:59.361Z,99296.47
2023-02-19T00:44:26.631Z,99302.41
2023-02-19T00:46:54.507Z,99300.91
2023-02-19T00:49:23.606Z,99300.34
2023-02-19T00:51:53.237Z,99307.94
2023-02-19T00:54:22.674Z,99305.75
2023-02-19T00:56:51.068Z,99304.00
2023-02-19T00:59:18.516Z,99313.06
2023-02-19T01:01:46.309Z,99309.03
2023-02-19T01:04:14.037Z,99313.94
2023-02-19T01:06:41.753Z,99308.97
2023-02-19T01:09:09.136Z,99303.16
2023-02-19T01:11:36.761Z,99289.22
2023-02-19T01:14:04.967Z,99287.47
2023-02-19T01:17:47.780Z,99282.41
2023-02-19T01:21:30.745Z,99278.41
2023-02-19T01:25:13.436Z,99273.19
2023-02-19T01:28:56.944Z,99270.38
2023-02-19T01:32:39.711Z,99272.34
2023-02-19T01:36:22.513Z,99263.59
2023-02-19T01:40:04.827Z,99259.91
2023-02-19T01:43:48.324Z,99258.00
2023-02-19T01:47:31.609Z,99240.16
2023-02-19T01:51:15.037Z,99252.75
2023-02-19T01:54:57.885Z,99242.88
2023-02-19T01:58:40.594Z,99248.91
2023-02-19T02:02:25.081Z,99248.63
2023-02-19T02:05:15.820Z,99247.75
2023-02-19T02:09:19.476Z,99241.59
2023-02-19T02:11:52.561Z,99242.09
2023-02-19T02:15:36.706Z,99249.81
2023-02-19T02:19:19.697Z,99251.84
2023-02-19T02:22:14.832Z,99245.44
2023-02-19T02:25:57.328Z,99245.56
2023-02-19T02:29:06.480Z,99249.16
2023-02-19T02:31:41.417Z,99256.00
2023-02-19T02:34:24.750Z,99252.50
2023-02-19T02:36:56.630Z,99245.72
2023-02-19T02:39:32.489Z,99233.06
2023-02-19T02:42:20.088Z,99225.03
2023-02-19T02:45:41.692Z,99227.38
2023-02-19T02:48:46.533Z,99232.53
2023-02-19T02:51:37.725Z,99222.13
2023-02-19T02:54:42.791Z,99224.31
2023-02-19T02:57:15.312Z,99226.91
2023-02-19T02:59:57.341Z,99230.94
2023-02-19T03:02:31.449Z,99215.97
2023-02-19T03:05:43.597Z,99226.84
2023-02-19T03:08:31.258Z,99220.56
2023-02-19T03:11:30.507Z,99224.53
2023-02-19T03:15:09.546Z,99219.66
2023-02-19T03:18:08.190Z,99221.59
2023-02-19T03:20:42.177Z,99217.13
2023-02-19T03:23:11.357Z,99222.34
2023-02-19T03:25:58.404Z,99221.53
2023-02-19T03:29:06.466Z,99220.25
2023-02-19T03:31:38.709Z,99218.28
2023-02-19T03:34:15.812Z,99217.63
2023-02-19T03:36:54.158Z,99219.44
2023-02-19T03:39:23.825Z,99224.25
2023-02-19T03:42:41.939Z,99221.50
2023-02-19T03:45:31.899Z,99226.91
2023-02-19T03:48:36.329Z,99224.19
2023-02-19T03:51:41.529Z,99223.59
2023-02-19T03:54:40.213Z,99244.25
2023-02-19T03:57:36.997Z,99238.59
2023-02-19T04:00:27.374Z,99238.41
2023-02-19T04:03:02.496Z,99233.59
2023-02-19T04:05:33.681Z,99238.56
2023-02-19T04:08:18.982Z,99243.69
2023-02-19T04:10:54.770Z,99246.59
2023-02-19T04:13:45.279Z,99250.69
2023-02-19T04:16:22.665Z,99250.19
2023-02-19T04:18:57.397Z,99251.88
2023-02-19T04:21:25.688Z,99253.31
2023-02-19T04:23:52.974Z,99259.81
2023-02-19T04:26:22.968Z,99257.09
2023-02-19T04:28:50.182Z,99260.34
2023-02-19T04:31:17.738Z,99258.38
2023-02-19T04:33:44.951Z,99255.38
2023-02-19T04:36:12.237Z,99254.19
2023-02-19T04:38:39.598Z,99267.94
2023-02-19T04:41:07.277Z,99265.81
2023-02-19T04:43:35.598Z,99279.34
2023-02-19T04:46:04.136Z,99277.06
2023-02-19T04:48:31.889Z,99274.41
2023-02-19T04:50:59.779Z,99273.56
2023-02-19T04:53:27.493Z,99284.13
2023-02-19T04:55:54.672Z,99291.06
2023-02-19T04:58:22.217Z,99296.88
2023-02-19T05:00:53.419Z,99293.94
2023-02-19T05:03:20.528Z,99300.66
2023-02-19T05:05:48.394Z,99301.53
2023-02-19T05:08:16.151Z,99302.84
2023-02-19T05:10:43.657Z,99295.25
2023-02-19T05:13:10.869Z,99293.22
2023-02-19T05:15:38.738Z,99291.28
2023-02-19T05:18:06.377Z,99284.00
2023-02-19T05:20:33.454Z,99293.06
2023-02-19T05:23:00.652Z,99300.44
2023-02-19T05:25:27.729Z,99301.97
2023-02-19T05:28:15.281Z,99304.31
2023-02-19T05:30:52.622Z,99294.81
2023-02-19T05:33:24.736Z,99287.72
2023-02-19T05:35:56.227Z,99284.75
2023-02-19T05:38:24.723Z,99283.72
2023-02-19T05:40:52.012Z,99293.50
2023-02-19T05:43:19.632Z,99293.44
2023-02-19T05:45:47.568Z,99298.03
2023-02-19T05:48:15.677Z,99296.78
2023-02-19T05:50:43.305Z,99310.44
2023-02-19T05:53:13.174Z,99300.22
2023-02-19T05:55:40.355Z,99309.28
2023-02-19T05:58:07.473Z,99305.16
2023-02-19T06:00:35.081Z,99309.94
2023-02-19T06:03:02.335Z,99306.63
2023-02-19T06:05:33.237Z,99313.50
2023-02-19T06:08:02.509Z,99318.03
2023-02-19T06:10:40.481Z,99327.34
2023-02-19T06:13:19.259Z,99326.34
2023-02-19T06:15:53.467Z,99340.41
2023-02-19T06:18:24.819Z,99343.22
2023-02-19T06:20:55.904Z,99344.13
2023-02-19T06:23:29.154Z,99358.13
2023-02-19T06:26:41.396Z,99361.84
2023-02-19T06:29:24.604Z,99369.69
2023-02-19T06:32:01.935Z,99378.66
2023-02-19T06:34:42.357Z,99391.22
2023-02-19T06:37:30.080Z,99389.56
2023-02-19T06:40:07.370Z,99395.06
2023-02-19T06:42:41.559Z,99389.44
2023-02-19T06:45:12.737Z,99401.91
2023-02-19T06:47:58.108Z,99396.50
2023-02-19T06:50:38.354Z,99395.28
2023-02-19T06:53:07.261Z,99388.66
2023-02-19T06:55:47.627Z,99398.94
2023-02-19T06:58:27.484Z,99400.25
2023-02-19T07:01:02.143Z,99407.56
2023-02-19T07:03:37.020Z,99403.25
2023-02-19T07:06:11.548Z,99401.19
2023-02-19T07:08:50.466Z,99413.06
2023-02-19T07:11:22.407Z,99412.47
2023-02-19T07:14:07.094Z,99418.72
2023-02-19T07:16:49.299Z,99427.34
2023-02-19T07:19:37.912Z,99423.34
2023-02-19T07:22:13.158Z,99421.69
2023-02-19T07:24:57.624Z,99430.13
2023-02-19T07:27:36.623Z,99459.56
2023-02-19T07:30:19.579Z,99451.22
2023-02-19T07:33:03.088Z,99452.66
2023-02-19T07:35:37.811Z,99452.41
2023-02-19T07:38:11.260Z,99439.75
2023-02-19T07:40:42.750Z,99440.69
2023-02-19T07:43:19.087Z,99453.56
2023-02-19T07:46:07.645Z,99445.69
2023-02-19T07:48:43.037Z,99440.56
2023-02-19T07:51:28.666Z,99452.59
2023-02-19T07:54:15.684Z,99434.00
2023-02-19T07:56:48.254Z,99430.13
2023-02-19T07:59:23.288Z,99441.56
2023-02-19T08:02:18.309Z,99441.31
2023-02-19T08:04:59.056Z,99436.28
2023-02-19T08:07:36.160Z,99432.59
2023-02-19T08:10:24.603Z,99448.19
2023-02-19T08:13:22.569Z,99441.44
2023-02-19T08:16:26.624Z,99438.22
2023-02-19T08:19:31.125Z,99438.31
2023-02-19T08:22:05.560Z,99441.19
2023-02-19T08:24:45.800Z,99457.94
2023-02-19T08:27:24.127Z,99461.81
2023-02-19T08:29:57.825Z,99482.44
2023-02-19T08:32:31.056Z,99487.91
2023-02-19T08:35:08.294Z,99491.38
2023-02-19T08:38:02.276Z,99490.19
2023-02-19T08:40:36.789Z,99518.19
2023-02-19T08:43:28.717Z,99505.50
2023-02-19T08:46:08.654Z,99500.47
2023-02-19T08:48:53.851Z,99497.69
2023-02-19T08:51:52.616Z,99503.56
2023-02-19T08:54:24.804Z,99500.63
2023-02-19T08:56:53.872Z,99500.22
2023-02-19T08:59:28.633Z,99515.34
2023-02-19T09:01:59.563Z,99512.66
2023-02-19T09:04:34.245Z,99513.34
2023-02-19T09:07:08.102Z,99520.53
2023-02-19T09:09:41.303Z,99523.31
2023-02-19T09:12:16.342Z,99538.47
2023-02-19T09:14:51.263Z,99537.50
2023-02-19T09:17:23.661Z,99537.84
2023-02-19T09:20:02.777Z,99547.69
2023-02-19T09:22:36.281Z,99550.19
2023-02-19T09:25:14.272Z,99560.50
2023-02-19T09:27:48.487Z,99549.53
2023-02-19T09:30:22.705Z,99550.50
2023-02-19T09:32:54.732Z,99551.50
2023-02-19T09:35:28.286Z,99560.66
2023-02-19T09:38:04.445Z,99558.22
2023-02-19T09:40:39.776Z,99552.16
2023-02-19T09:43:26.281Z,99550.06
2023-02-19T09:46:13.730Z,99550.16
2023-02-19T09:48:56.628Z,99554.00
2023-02-19T09:51:30.280Z,99547.41
2023-02-19T09:54:06.301Z,99556.56
2023-02-19T09:56:48.389Z,99569.09
2023-02-19T09:59:28.330Z,99566.03
2023-02-19T10:02:27.964Z,99564.56
2023-02-19T10:05:11.026Z,99566.31
2023-02-19T10:07:52.872Z,99578.88
2023-02-19T10:10:40.095Z,99549.56
2023-02-19T10:13:30.471Z,99543.81
2023-02-19T10:16:40.041Z,99547.09
2023-02-19T10:19:18.447Z,99549.81
2023-02-19T10:22:03.566Z,99556.09
2023-02-19T10:24:48.581Z,99557.25
2023-02-19T10:27:29.060Z,99556.78
2023-02-19T10:30:24.437Z,99550.31
2023-02-19T10:33:12.932Z,99568.41
2023-02-19T10:36:25.015Z,99564.50
2023-02-19T10:39:26.488Z,99575.78
2023-02-19T10:41:58.542Z,99566.78
2023-02-19T10:45:04.392Z,99577.94
2023-02-19T10:47:49.530Z,99578.56
2023-02-19T10:50:40.577Z,99589.84
2023-02-19T10:53:43.673Z,99601.53
2023-02-19T10:56:33.059Z,99593.72
2023-02-19T10:59:29.090Z,99587.03
2023-02-19T11:02:15.951Z,99590.53
2023-02-19T11:05:12.422Z,99597.22
2023-02-19T11:08:04.497Z,99587.19
2023-02-19T11:10:58.770Z,99601.38
2023-02-19T11:13:47.559Z,99589.53
2023-02-19T11:16:52.259Z,99569.16
2023-02-19T11:19:46.740Z,99571.44
2023-02-19T11:22:47.173Z,99578.28
2023-02-19T11:25:27.421Z,99578.22
2023-02-19T11:28:35.720Z,99594.78
2023-02-19T11:31:20.202Z,99566.34
2023-02-19T11:34:33.350Z,99586.19
2023-02-19T11:37:38.560Z,99571.25
2023-02-19T11:40:12.997Z,99583.78
2023-02-19T11:43:07.799Z,99574.75
2023-02-19T11:46:01.853Z,99588.34
2023-02-19T11:48:51.969Z,99578.66
2023-02-19T11:51:39.861Z,99584.94
2023-02-19T11:55:03.467Z,99591.19
2023-02-19T11:58:24.892Z,99589.91
2023-02-19T12:01:37.837Z,99602.59
2023-02-19T12:05:05.022Z,99609.03
2023-02-19T12:08:08.608Z,99611.97
2023-02-19T12:11:38.593Z,99618.97
2023-02-19T12:15:07.589Z,99621.59
2023-02-19T12:18:51.765Z,99606.81
2023-02-19T12:22:07.541Z,99598.06
2023-02-19T12:25:39.434Z,99596.72
2023-02-19T12:29:08.228Z,99593.19
2023-02-19T12:31:58.753Z,99599.47
2023-02-19T12:35:29.956Z,99569.16
2023-02-19T12:38:23.653Z,99588.97
2023-02-19T12:41:19.858Z,99591.69
2023-02-19T12:44:06.599Z,99596.63
2023-02-19T12:47:54.405Z,99594.97
2023-02-19T12:51:47.354Z,99598.88
2023-02-19T12:54:55.670Z,99590.00
2023-02-19T12:58:49.183Z,99583.78
2023-02-19T13:01:34.967Z,99596.94
2023-02-19T13:05:26.726Z,99590.84
2023-02-19T13:09:14.840Z,99580.78
2023-02-19T13:12:35.681Z,99567.78
2023-02-19T13:16:20.771Z,99580.59
2023-02-19T13:19:02.447Z,99576.22
2023-02-19T13:23:10.758Z,99604.59
2023-02-19T13:27:01.386Z,99583.09
2023-02-19T13:30:49.658Z,99582.34
2023-02-19T13:34:40.688Z,99590.13
2023-02-19T13:37:19.948Z,99593.22
2023-02-19T13:40:15.304Z,99592.91
2023-02-19T13:44:04.164Z,99582.03
2023-02-19T13:46:50.420Z,99593.66
2023-02-19T13:49:25.765Z,99575.59
2023-02-19T13:52:06.128Z,99574.91
2023-02-19T13:54:43.740Z,99570.38
2023-02-19T13:57:35.726Z,99581.69
2023-02-19T14:00:54.138Z,99568.75
2023-02-19T14:03:38.182Z,99570.34
2023-02-19T14:06:10.982Z,99563.53
2023-02-19T14:08:57.391Z,99573.91
2023-02-19T14:11:52.949Z,99568.00
2023-02-19T14:15:15.344Z,99576.66
2023-02-19T14:18:15.510Z,99581.50
2023-02-19T14:20:51.295Z,99573.25
2023-02-19T14:23:33.094Z,99571.25
2023-02-19T14:26:04.520Z,99573.00
2023-02-19T14:28:50.968Z,99580.50
2023-02-19T14:31:40.025Z,99581.63
2023-02-19T14:34:28.696Z,99582.38
2023-02-19T14:37:12.830Z,99588.81
2023-02-19T14:40:00.742Z,99599.03
2023-02-19T14:42:37.129Z,99594.31
2023-02-19T14:45:28.862Z,99588.19
2023-02-19T14:48:02.683Z,99589.94
2023-02-19T14:50:44.139Z,99594.41
2023-02-19T14:53:34.212Z,99599.19
2023-02-19T14:56:06.994Z,99598.75
2023-02-19T14:58:37.318Z,99610.94
2023-02-19T15:01:39.670Z,99613.97
2023-02-19T15:04:39.086Z,99613.41
2023-02-19T15:07:21.461Z,99608.66
2023-02-19T15:09:57.845Z,99619.38
2023-02-19T15:12:50.103Z,99621.13
2023-02-19T15:15:41.997Z,99632.66
2023-02-19T15:18:30.324Z,99636.47
2023-02-19T15:21:09.033Z,99646.44
2023-02-19T15:23:48.876Z,99636.41
2023-02-19T15:26:43.200Z,99643.81
2023-02-19T15:29:55.243Z,99655.59
2023-02-19T15:32:37.811Z,99649.50
2023-02-19T15:35:25.544Z,99653.91
2023-02-19T15:38:03.406Z,99658.59
2023-02-19T15:40:39.198Z,99669.19
2023-02-19T15:43:23.588Z,99657.28
2023-02-19T15:46:01.368Z,99663.53
2023-02-19T15:48:55.207Z,99661.03
2023-02-19T15:51:48.283Z,99655.44
2023-02-19T15:54:40.118Z,99655.00
2023-02-19T15:57:28.134Z,99650.16
2023-02-19T16:01:10.038Z,99650.00
2023-02-19T16:03:44.142Z,99647.88
2023-02-19T16:06:30.900Z,99669.06
2023-02-19T16:09:57.798Z,99657.72
2023-02-19T16:12:32.272Z,99659.03
2023-02-19T16:15:25.705Z,99662.44
2023-02-19T16:18:06.160Z,99664.16
2023-02-19T16:20:49.726Z,99664.38
2023-02-19T16:23:25.241Z,99660.31
2023-02-19T16:26:19.781Z,99670.16
2023-02-19T16:29:06.968Z,99679.47
2023-02-19T16:31:53.778Z,99681.38
2023-02-19T16:34:53.208Z,99679.19
2023-02-19T16:38:06.624Z,99672.69
2023-02-19T16:41:28.436Z,99675.47
2023-02-19T16:43:57.127Z,99675.56
2023-02-19T16:46:30.214Z,99674.91
2023-02-19T16:49:16.102Z,99668.91
2023-02-19T16:51:51.588Z,99665.25
2023-02-19T16:54:30.892Z,99669.44
2023-02-19T16:57:18.972Z,99673.56
2023-02-19T16:59:55.905Z,99672.97
2023-02-19T17:03:03.308Z,99677.47
2023-02-19T17:05:45.574Z,99688.59
2023-02-19T17:08:40.107Z,99685.41
2023-02-19T17:11:26.836Z,99698.97
2023-02-19T17:14:09.552Z,99702.13
2023-02-19T17:16:51.266Z,99702.38
2023-02-19T17:19:23.020Z,99699.16
2023-02-19T17:21:55.080Z,99699.94
2023-02-19T17:24:24.671Z,99704.75
2023-02-19T17:26:55.782Z,99719.09
2023-02-19T17:29:25.164Z,99725.22
2023-02-19T17:31:59.944Z,99725.47
2023-02-19T17:34:32.170Z,99731.41
2023-02-19T17:37:12.201Z,99739.59
2023-02-19T17:39:49.752Z,99740.13
2023-02-19T17:42:51.083Z,99748.22
2023-02-19T17:45:28.465Z,99743.88
2023-02-19T17:48:05.809Z,99752.16
2023-02-19T17:50:39.075Z,99757.88
2023-02-19T17:53:13.274Z,99765.47
2023-02-19T17:56:21.758Z,99760.84
2023-02-19T17:59:10.223Z,99772.28
2023-02-19T18:08:42.740Z,99779.41
2023-02-19T18:11:29.086Z,99798.38
2023-02-19T18:14:02.288Z,99800.50
2023-02-19T18:17:02.057Z,99804.84
2023-02-19T18:19:53.305Z,99816.28
2023-02-19T18:22:28.186Z,99814.19
2023-02-19T18:25:13.067Z,99820.72
2023-02-19T18:27:52.267Z,99817.47
2023-02-19T18:30:41.125Z,99818.03
2023-02-19T18:33:14.171Z,99814.28
2023-02-19T18:35:59.564Z,99814.81
2023-02-19T18:38:51.564Z,99810.97
2023-02-19T18:41:53.704Z,99821.25
2023-02-19T18:44:41.823Z,99822.13
2023-02-19T18:47:36.710Z,99822.91
2023-02-19T18:50:26.173Z,99826.09
2023-02-19T18:53:04.662Z,99830.78
2023-02-19T18:56:12.701Z,99823.63
2023-02-19T18:59:16.405Z,99828.78
2023-02-19T19:02:14.383Z,99826.09
2023-02-19T19:05:17.657Z,99827.28
2023-02-19T19:08:01.518Z,99831.00
2023-02-19T19:10:48.825Z,99834.66
2023-02-19T19:13:36.079Z,99840.19
2023-02-19T19:16:33.314Z,99841.97
2023-02-19T19:19:28.826Z,99836.72
2023-02-19T19:22:13.193Z,99845.19
2023-02-19T19:24:51.555Z,99860.88
2023-02-19T19:27:20.220Z,99866.44
2023-02-19T19:29:47.905Z,99856.31
2023-02-19T19:32:20.600Z,99857.75
2023-02-19T19:34:54.557Z,99861.03
2023-02-19T19:37:22.104Z,99862.84
2023-02-19T19:39:49.403Z,99866.13
2023-02-19T19:42:16.709Z,99865.34
2023-02-19T19:44:45.280Z,99858.28
2023-02-19T19:47:12.667Z,99860.34
2023-02-19T19:49:47.369Z,99871.91
2023-02-19T19:52:15.388Z,99878.00
2023-02-19T19:54:43.277Z,99871.03
2023-02-19T19:57:11.651Z,99872.38
2023-02-19T19:59:40.372Z,99877.47
2023-02-19T20:02:10.504Z,99874.53
2023-02-19T20:04:37.685Z,99876.72
2023-02-19T20:07:05.408Z,99874.44
2023-02-19T20:09:32.863Z,99874.38
2023-02-19T20:12:00.136Z,99877.28
2023-02-19T20:14:27.875Z,99879.63
2023-02-19T20:16:56.519Z,99866.78
2023-02-19T20:19:23.893Z,99862.94
2023-02-19T20:21:53.319Z,99869.56
2023-02-19T20:24:28.708Z,99865.66
2023-02-19T20:27:00.419Z,99863.84
2023-02-19T20:29:31.859Z,99869.50
2023-02-19T20:32:00.488Z,99862.41
2023-02-19T20:34:28.348Z,99863.56
2023-02-19T20:36:56.948Z,99870.53
2023-02-19T20:39:29.993Z,99867.91
2023-02-19T20:41:59.428Z,99880.94
2023-02-19T20:44:29.189Z,99884.44
2023-02-19T20:46:59.608Z,99879.66
2023-02-19T20:49:30.672Z,99874.50
2023-02-19T20:52:05.077Z,99877.09
2023-02-19T20:54:35.436Z,99873.78
2023-02-19T20:57:05.964Z,99864.84
2023-02-19T20:59:38.669Z,99875.63
2023-02-19T21:02:24.624Z,99870.72
2023-02-19T21:04:51.868Z,99868.00
2023-02-19T21:07:19.906Z,99876.59
2023-02-19T21:09:47.178Z,99867.00
2023-02-19T21:12:14.708Z,99879.53
2023-02-19T21:14:42.204Z,99879.44
2023-02-19T21:17:09.648Z,99877.78
2023-02-19T21:19:36.929Z,99884.69
2023-02-19T21:22:04.495Z,99886.19
2023-02-19T21:24:32.794Z,99881.72
2023-02-19T21:27:00.007Z,99873.41
2023-02-19T21:29:27.450Z,99883.03
2023-02-19T21:31:57.404Z,99872.84
2023-02-19T21:34:29.092Z,99868.25
2023-02-19T21:36:57.062Z,99882.44
2023-02-19T21:39:31.110Z,99874.75
2023-02-19T21:41:58.767Z,99881.34
2023-02-19T21:44:26.257Z,99877.47
2023-02-19T21:46:53.718Z,99872.94
2023-02-19T21:49:21.884Z,99865.00
2023-02-19T21:51:50.212Z,99858.06
2023-02-19T21:54:24.759Z,99858.69
2023-02-19T21:56:53.901Z,99862.44
2023-02-19T21:59:22.593Z,99857.53
2023-02-19T22:01:50.695Z,99860.31
2023-02-19T22:04:21.860Z,99849.91
2023-02-19T22:06:56.660Z,99860.72
2023-02-19T22:09:24.036Z,99862.22
2023-02-19T22:11:51.930Z,99858.34
2023-02-19T22:14:19.204Z,99860.00
2023-02-19T22:16:46.961Z,99862.28
2023-02-19T22:19:14.296Z,99867.00
2023-02-19T22:21:45.412Z,99866.00
2023-02-19T22:24:21.864Z,99872.84
2023-02-19T22:26:51.307Z,99870.69
2023-02-19T22:29:18.599Z,99880.56
2023-02-19T22:31:45.926Z,99883.66
2023-02-19T22:34:15.577Z,99880.06
2023-02-19T22:36:43.488Z,99879.06
2023-02-19T22:39:27.069Z,99884.31
2023-02-19T22:41:54.376Z,99888.59
2023-02-19T22:44:21.634Z,99890.25
2023-02-19T22:46:53.540Z,99886.75
2023-02-19T22:49:22.942Z,99888.50
2023-02-19T22:52:10.183Z,99892.00
2023-02-19T22:54:37.880Z,99894.47
2023-02-19T22:57:06.038Z,99887.13
2023-02-19T22:59:33.164Z,99887.72
2023-02-19T23:02:00.416Z,99890.56
2023-02-19T23:04:27.629Z,99902.06
2023-02-19T23:06:55.186Z,99904.94
2023-02-19T23:09:27.727Z,99896.22
2023-02-19T23:12:09.231Z,99908.03
2023-02-19T23:14:36.971Z,99912.69
2023-02-19T23:17:04.553Z,99910.19
2023-02-19T23:19:32.555Z,99911.75
2023-02-19T23:21:59.931Z,99904.25
2023-02-19T23:24:27.198Z,99911.22
2023-02-19T23:26:55.010Z,99912.81
2023-02-19T23:29:26.852Z,99905.50
2023-02-19T23:31:55.160Z,99906.13
2023-02-19T23:34:24.355Z,99906.22
2023-02-19T23:36:51.810Z,99913.59
2023-02-19T23:39:22.626Z,99922.81
2023-02-19T23:41:56.828Z,99920.13
2023-02-19T23:44:25.647Z,99914.00
2023-02-19T23:46:53.486Z,99909.47
2023-02-19T23:49:21.083Z,99910.59
2023-02-19T23:51:49.469Z,99913.41
2023-02-19T23:54:16.631Z,99918.09
2023-02-19T23:56:43.931Z,99913.25
2023-02-19T23:59:11.194Z,99922.13
